createdAt,value
2019-05-17T00:01:27.076Z,63.40
2019-05-17T00:06:30.892Z,62.40
2019-05-17T00:11:36.773Z,62.00
2019-05-17T00:16:40.981Z,63.20
2019-05-17T00:21:47.309Z,62.80
2019-05-17T00:26:51.981Z,62.50
2019-05-17T00:31:56.839Z,62.80
2019-05-17T00:37:01.170Z,62.90
2019-05-17T00:42:06.987Z,62.80
2019-05-17T00:47:11.282Z,62.80
2019-05-17T00:52:16.751Z,63.10
2019-05-17T00:57:21.910Z,62.90
2019-05-17T01:02:27.102Z,62.70
2019-05-17T01:07:33.693Z,62.70
2019-05-17T01:12:38.741Z,63.00
2019-05-17T01:17:43.606Z,63.70
2019-05-17T01:22:48.826Z,63.60
2019-05-17T01:27:53.657Z,64.00
2019-05-17T01:32:59.273Z,63.60
2019-05-17T01:38:07.066Z,63.90
2019-05-17T01:43:11.995Z,65.00
2019-05-17T01:48:16.955Z,64.20
2019-05-17T01:53:22.063Z,64.60
2019-05-17T01:58:27.111Z,64.00
2019-05-17T02:03:31.973Z,64.80
2019-05-17T02:08:37.473Z,64.50
2019-05-17T02:13:42.459Z,63.80
2019-05-17T02:18:47.311Z,63.60
2019-05-17T02:23:52.400Z,64.90
2019-05-17T02:28:58.417Z,64.50
2019-05-17T02:34:03.647Z,64.40
2019-05-17T02:39:12.940Z,64.20
2019-05-17T02:44:16.781Z,65.40
2019-05-17T02:49:23.586Z,65.60
2019-05-17T02:54:28.750Z,65.80
2019-05-17T02:59:33.591Z,65.50
2019-05-17T03:04:38.702Z,66.00
2019-05-17T03:09:43.621Z,65.80
2019-05-17T03:14:52.657Z,66.90
2019-05-17T03:19:56.286Z,66.60
2019-05-17T03:25:03.221Z,66.90
2019-05-17T03:30:08.219Z,66.90
2019-05-17T03:35:16.399Z,67.10
2019-05-17T03:40:36.388Z,67.40
2019-05-17T03:45:27.929Z,67.20
2019-05-17T03:50:33.714Z,67.30
2019-05-17T03:55:39.011Z,67.70
2019-05-17T04:00:44.026Z,68.10
2019-05-17T04:05:52.658Z,68.10
2019-05-17T04:10:55.610Z,68.20
2019-05-17T04:16:03.514Z,68.60
2019-05-17T04:21:06.423Z,68.50
2019-05-17T04:26:13.286Z,68.30
2019-05-17T04:31:17.009Z,68.50
2019-05-17T04:36:22.470Z,68.10
2019-05-17T04:41:44.703Z,68.70
2019-05-17T04:46:33.477Z,68.80
2019-05-17T04:51:38.082Z,68.90
2019-05-17T04:56:42.695Z,69.00
2019-05-17T05:01:47.346Z,69.20
2019-05-17T05:06:52.904Z,68.80
2019-05-17T05:12:02.638Z,69.50
2019-05-17T05:17:04.750Z,69.50
2019-05-17T05:22:09.066Z,69.00
2019-05-17T05:27:13.673Z,68.90
2019-05-17T05:32:17.942Z,69.40
2019-05-17T05:37:23.307Z,69.00
2019-05-17T05:42:31.403Z,68.00
2019-05-17T05:47:36.135Z,67.80
2019-05-17T05:52:42.090Z,67.90
2019-05-17T05:57:46.001Z,67.80
2019-05-17T06:02:52.333Z,68.40
2019-05-17T06:07:57.424Z,68.10
2019-05-17T06:13:03.307Z,67.40
2019-05-17T06:18:07.954Z,67.70
2019-05-17T06:23:13.509Z,67.20
2019-05-17T06:28:18.915Z,67.00
2019-05-17T06:33:30.733Z,66.30
2019-05-17T06:38:32.641Z,65.60
2019-05-17T06:43:41.468Z,65.80
2019-05-17T06:48:45.808Z,65.40
2019-05-17T06:53:52.429Z,65.10
2019-05-17T06:58:58.042Z,63.90
2019-05-17T07:04:03.368Z,62.80
2019-05-17T07:09:10.032Z,64.30
2019-05-17T07:14:15.409Z,62.00
2019-05-17T07:19:20.521Z,61.60
2019-05-17T07:24:25.908Z,61.50
2019-05-17T07:29:31.152Z,59.10
2019-05-17T07:34:35.938Z,61.00
2019-05-17T07:39:42.318Z,59.30
2019-05-17T07:44:49.690Z,57.20
2019-05-17T07:49:55.007Z,56.20
2019-05-17T07:55:02.345Z,54.80
2019-05-17T08:00:10.133Z,55.20
2019-05-17T08:05:14.495Z,55.70
2019-05-17T08:10:20.523Z,52.90
2019-05-17T08:15:26.232Z,52.70
2019-05-17T08:20:31.680Z,52.00
2019-05-17T08:25:49.714Z,50.10
2019-05-17T08:30:44.111Z,50.30
2019-05-17T08:35:49.462Z,49.40
2019-05-17T08:40:54.403Z,50.00
2019-05-17T08:46:01.637Z,51.70
2019-05-17T08:51:05.501Z,50.70
2019-05-17T08:56:10.189Z,49.50
2019-05-17T09:01:14.072Z,50.30
2019-05-17T09:06:19.764Z,50.50
2019-05-17T09:11:23.851Z,48.50
2019-05-17T09:16:27.494Z,46.80
2019-05-17T09:21:31.841Z,46.00
2019-05-17T09:26:36.603Z,45.70
2019-05-17T09:31:40.994Z,46.00
2019-05-17T09:36:45.080Z,42.50
2019-05-17T09:41:51.044Z,43.20
2019-05-17T09:46:55.323Z,42.30
2019-05-17T09:52:00.301Z,42.90
2019-05-17T09:57:05.946Z,42.10
2019-05-17T10:02:10.928Z,43.20
2019-05-17T10:07:15.684Z,42.70
2019-05-17T10:12:20.619Z,42.30
2019-05-17T10:17:29.016Z,41.70
2019-05-17T10:22:34.521Z,41.70
2019-05-17T10:27:40.713Z,40.60
2019-05-17T10:32:46.395Z,41.50
2019-05-17T10:37:51.916Z,43.20
2019-05-17T10:42:57.348Z,42.00
2019-05-17T10:48:03.223Z,42.90
2019-05-17T10:53:10.063Z,40.30
2019-05-17T10:58:15.580Z,41.70
2019-05-17T11:03:21.597Z,40.50
2019-05-17T11:08:28.046Z,40.80
2019-05-17T11:13:34.025Z,41.90
2019-05-17T11:18:40.193Z,41.10
2019-05-17T11:23:45.635Z,42.30
2019-05-17T11:28:51.104Z,40.70
2019-05-17T11:33:56.358Z,41.30
2019-05-17T11:39:01.738Z,38.90
2019-05-17T11:44:19.966Z,38.70
2019-05-17T11:49:25.800Z,40.70
2019-05-17T11:54:31.361Z,40.00
2019-05-17T11:59:36.188Z,40.50
2019-05-17T12:04:42.122Z,39.50
2019-05-17T12:09:47.833Z,39.00
2019-05-17T12:14:53.640Z,39.90
2019-05-17T12:19:58.815Z,37.60
2019-05-17T12:25:08.021Z,38.70
2019-05-17T12:30:13.567Z,40.10
2019-05-17T12:35:18.912Z,38.70
2019-05-17T12:40:27.213Z,39.30
2019-05-17T12:45:30.829Z,39.10
2019-05-17T12:50:37.743Z,37.30
2019-05-17T12:55:43.313Z,38.40
2019-05-17T13:00:48.570Z,39.60
2019-05-17T13:05:53.708Z,37.70
2019-05-17T13:10:58.913Z,36.80
2019-05-17T13:16:17.323Z,36.20
2019-05-17T13:21:13.419Z,36.80
2019-05-17T13:26:19.121Z,38.70
2019-05-17T13:31:24.098Z,37.10
2019-05-17T13:36:28.687Z,37.40
2019-05-17T13:41:33.755Z,36.70
2019-05-17T13:46:40.339Z,35.60
2019-05-17T13:51:46.619Z,36.50
2019-05-17T13:56:52.626Z,36.10
2019-05-17T14:01:57.326Z,37.30
2019-05-17T14:07:03.402Z,35.10
2019-05-17T14:12:09.229Z,35.30
2019-05-17T14:17:13.587Z,35.70
2019-05-17T14:22:19.383Z,35.00
2019-05-17T14:27:24.605Z,37.10
2019-05-17T14:32:30.451Z,34.00
2019-05-17T14:37:35.529Z,35.10
2019-05-17T14:42:41.523Z,35.30
2019-05-17T14:47:48.009Z,36.10
2019-05-17T14:52:53.636Z,36.50
2019-05-17T14:57:59.844Z,35.10
2019-05-17T15:03:07.565Z,33.60
2019-05-17T15:08:12.065Z,34.20
2019-05-17T15:13:18.164Z,33.30
2019-05-17T15:18:24.456Z,32.50
2019-05-17T15:23:30.180Z,34.10
2019-05-17T15:28:35.511Z,35.80
2019-05-17T15:33:41.169Z,34.00
2019-05-17T15:38:47.334Z,35.10
2019-05-17T15:43:53.349Z,34.90
2019-05-17T15:48:59.316Z,34.60
2019-05-17T15:54:04.803Z,35.80
2019-05-17T15:59:09.967Z,33.30
2019-05-17T16:04:15.393Z,34.40
2019-05-17T16:09:20.881Z,35.30
2019-05-17T16:14:26.513Z,35.50
2019-05-17T16:19:32.341Z,34.60
2019-05-17T16:24:38.035Z,33.60
2019-05-17T16:29:42.946Z,34.20
2019-05-17T16:34:47.908Z,34.50
2019-05-17T16:39:53.491Z,34.40
2019-05-17T16:44:59.196Z,35.80
2019-05-17T16:50:05.213Z,36.30
2019-05-17T16:55:10.691Z,35.00
2019-05-17T17:00:34.450Z,35.90
2019-05-17T17:05:39.896Z,36.20
2019-05-17T17:10:45.032Z,36.90
2019-05-17T17:15:50.604Z,36.00
2019-05-17T17:20:55.870Z,36.30
2019-05-17T17:26:01.604Z,37.30
2019-05-17T17:31:11.279Z,37.50
2019-05-17T17:36:18.932Z,37.30
2019-05-17T17:41:25.856Z,38.30
2019-05-17T17:46:29.163Z,38.50
2019-05-17T17:51:35.088Z,39.00
2019-05-17T17:56:41.324Z,39.20
2019-05-17T18:01:48.434Z,39.80
2019-05-17T18:06:53.880Z,39.50
2019-05-17T18:11:59.085Z,38.90
2019-05-17T18:17:03.329Z,39.40
2019-05-17T18:22:08.355Z,40.00
2019-05-17T18:27:15.007Z,41.00
2019-05-17T18:32:20.930Z,41.50
2019-05-17T18:37:26.435Z,41.40
2019-05-17T18:42:32.055Z,41.20
2019-05-17T18:47:37.541Z,42.50
2019-05-17T18:52:43.684Z,42.70
2019-05-17T18:57:48.875Z,42.80
2019-05-17T19:02:54.119Z,41.40
2019-05-17T19:07:59.944Z,41.70
2019-05-17T19:13:05.389Z,42.60
2019-05-17T19:18:10.984Z,43.10
2019-05-17T19:23:18.135Z,42.80
2019-05-17T19:28:23.865Z,43.20
2019-05-17T19:33:28.824Z,42.70
2019-05-17T19:38:33.996Z,44.60
2019-05-17T19:43:39.234Z,44.90
2019-05-17T19:48:44.630Z,45.50
2019-05-17T19:53:51.241Z,45.80
2019-05-17T19:58:56.655Z,44.00
2019-05-17T20:04:02.542Z,45.60
2019-05-17T20:09:08.574Z,44.30
2019-05-17T20:14:14.971Z,43.80
2019-05-17T20:19:20.147Z,44.00
2019-05-17T20:24:25.188Z,43.50
2019-05-17T20:29:30.728Z,44.30
2019-05-17T20:34:36.066Z,45.60
2019-05-17T20:39:41.021Z,48.10
2019-05-17T20:44:46.220Z,48.10
2019-05-17T20:49:51.094Z,48.30
2019-05-17T20:54:57.907Z,47.80
2019-05-17T21:00:03.774Z,45.90
2019-05-17T21:05:13.126Z,45.50
2019-05-17T21:10:18.931Z,48.00
2019-05-17T21:15:24.080Z,47.80
2019-05-17T21:20:29.368Z,47.50
2019-05-17T21:25:34.615Z,50.30
2019-05-17T21:30:39.796Z,51.00
2019-05-17T21:35:44.071Z,51.30
2019-05-17T21:40:48.070Z,51.40
2019-05-17T21:46:03.139Z,52.60
2019-05-17T21:50:59.948Z,52.80
2019-05-17T21:56:03.311Z,53.20
2019-05-17T22:01:22.526Z,52.70
2019-05-17T22:06:26.923Z,53.10
2019-05-17T22:11:32.134Z,53.10
2019-05-17T22:16:35.609Z,53.30
2019-05-17T22:21:41.033Z,55.60
2019-05-17T22:26:45.443Z,55.30
2019-05-17T22:31:49.710Z,55.30
2019-05-17T22:36:54.466Z,56.30
2019-05-17T22:41:59.224Z,56.40
2019-05-17T22:47:04.107Z,57.40
2019-05-17T22:52:08.429Z,57.80
2019-05-17T22:57:13.253Z,57.60
2019-05-17T23:02:18.019Z,58.60
2019-05-17T23:07:23.224Z,58.80
2019-05-17T23:12:28.475Z,60.20
2019-05-17T23:17:33.656Z,60.30
2019-05-17T23:22:39.245Z,59.40
2019-05-17T23:27:44.735Z,61.40
2019-05-17T23:32:50.057Z,61.40
2019-05-17T23:37:56.438Z,61.90
2019-05-17T23:43:01.694Z,62.20
2019-05-17T23:48:06.319Z,63.90
2019-05-17T23:53:11.924Z,62.80
2019-05-17T23:58:17.515Z,64.40
